Time,TemperatureF,DewpointF,PressureIn,WindDirection,WindDirectionDegrees,WindSpeedMPH,WindSpeedGustMPH,Humidity,HourlyPrecipIn,Conditions,Clouds,dailyrainin,SoftwareType,DateUTC
2013-04-20 00:01:00,54.4,51.8,29.70,West,276,0.0,0.0,91,0.06,,RA,0.00,VWS V14.00,2013-04-20 04:01:00,
2013-04-20 00:06:00,54.4,51.8,29.70,West,280,0.0,1.0,91,0.05,,RA,0.01,VWS V14.00,2013-04-20 04:06:00,
2013-04-20 00:11:00,54.4,51.8,29.70,WNW,294,0.0,0.0,91,0.05,,RA,0.01,VWS V14.00,2013-04-20 04:11:00,
2013-04-20 00:16:00,54.5,51.9,29.71,NW,313,1.0,1.0,91,0.04,,RA,0.02,VWS V14.00,2013-04-20 04:16:00,
2013-04-20 00:21:00,54.4,51.8,29.71,WNW,283,0.0,3.0,91,0.04,,RA,0.02,VWS V14.00,2013-04-20 04:21:00,
2013-04-20 00:26:00,54.1,51.5,29.71,West,263,2.0,3.0,91,0.06,,RA,0.03,VWS V14.00,2013-04-20 04:26:00,
2013-04-20 00:31:00,53.7,51.1,29.73,East,82,0.0,4.0,91,0.06,,RA,0.03,VWS V14.00,2013-04-20 04:31:00,
2013-04-20 00:41:00,53.2,50.7,29.73,WNW,292,2.0,6.0,91,0.08,,RA,0.05,VWS V14.00,2013-04-20 04:41:00,
2013-04-20 00:46:00,52.6,50.0,29.75,West,275,3.0,5.0,91,0.09,,RA,0.05,VWS V14.00,2013-04-20 04:46:00,
2013-04-20 00:51:00,52.2,49.7,29.75,NNW,337,4.0,6.0,91,0.06,,RA,0.05,VWS V14.00,2013-04-20 04:51:00,
2013-04-20 00:56:00,51.8,49.3,29.75,NW,325,1.0,1.0,91,0.06,,RA,0.06,VWS V14.00,2013-04-20 04:56:00,
2013-04-20 01:01:00,51.5,49.0,29.73,NNE,14,1.0,3.0,91,0.08,,-RA,0.07,VWS V14.00,2013-04-20 05:01:00,
2013-04-20 01:06:00,51.4,48.9,29.73,WNW,282,0.0,0.0,91,0.08,,-RA,0.07,VWS V14.00,2013-04-20 05:06:00,
2013-04-20 01:11:00,51.3,48.8,29.73,NNE,12,0.0,1.0,91,0.07,,-RA,0.08,VWS V14.00,2013-04-20 05:11:00,
2013-04-20 01:16:00,51.1,48.6,29.73,NW,316,0.0,2.0,91,0.07,,-RA,0.08,VWS V14.00,2013-04-20 05:16:00,
2013-04-20 01:21:00,50.9,48.4,29.73,North,355,0.0,1.0,91,0.05,,-RA,0.08,VWS V14.00,2013-04-20 05:21:00,
2013-04-20 01:26:00,50.6,48.1,29.73,NW,323,2.0,2.0,91,0.04,,-RA,0.09,VWS V14.00,2013-04-20 05:26:00,
2013-04-20 01:31:00,50.4,47.9,29.72,WNW,292,2.0,3.0,91,0.04,,-RA,0.09,VWS V14.00,2013-04-20 05:31:00,
2013-04-20 01:36:00,50.2,47.7,29.72,West,275,0.0,2.0,91,0.04,,-RA,0.09,VWS V14.00,2013-04-20 05:36:00,
2013-04-20 01:41:00,50.1,47.6,29.72,WNW,290,0.0,1.0,91,0.04,,-RA,0.10,VWS V14.00,2013-04-20 05:41:00,
2013-04-20 01:46:00,49.9,47.4,29.75,NNW,348,0.0,0.0,91,0.04,,-RA,0.11,VWS V14.00,2013-04-20 05:46:00,
2013-04-20 01:51:00,49.8,47.3,29.75,WNW,296,2.0,7.0,91,0.07,,-RA,0.12,VWS V14.00,2013-04-20 05:51:00,
2013-04-20 01:56:00,49.7,47.2,29.75,NW,313,4.0,4.0,91,0.11,,-RA,0.12,VWS V14.00,2013-04-20 05:56:00,
2013-04-20 02:01:00,49.5,47.0,29.75,NNW,344,0.0,0.0,91,0.08,,RA,0.13,VWS V14.00,2013-04-20 06:01:00,
2013-04-20 02:06:00,49.4,46.9,29.75,North,349,2.0,3.0,91,0.08,,RA,0.13,VWS V14.00,2013-04-20 06:06:00,
2013-04-20 02:11:00,49.2,46.7,29.75,NW,319,2.0,5.0,91,0.07,,RA,0.14,VWS V14.00,2013-04-20 06:11:00,
2013-04-20 02:16:00,49.0,46.5,29.74,NNW,338,2.0,5.0,91,0.07,,RA,0.14,VWS V14.00,2013-04-20 06:16:00,
2013-04-20 02:21:00,48.8,46.3,29.74,NW,311,3.0,4.0,91,0.05,,RA,0.14,VWS V14.00,2013-04-20 06:21:00,
2013-04-20 02:26:00,48.6,46.1,29.74,SSW,213,3.0,5.0,91,0.00,,RA,0.14,VWS V14.00,2013-04-20 06:26:00,
2013-04-20 02:31:00,48.5,46.0,29.76,West,276,1.0,2.0,91,0.00,,RA,0.14,VWS V14.00,2013-04-20 06:31:00,
2013-04-20 02:36:00,48.5,46.0,29.76,NNW,342,2.0,3.0,91,0.00,,RA,0.15,VWS V14.00,2013-04-20 06:36:00,
2013-04-20 02:41:00,48.4,45.9,29.76,NNW,346,0.0,0.0,91,0.00,,RA,0.16,VWS V14.00,2013-04-20 06:41:00,
2013-04-20 02:46:00,48.5,46.0,29.76,WNW,302,0.0,2.0,91,0.08,,RA,0.16,VWS V14.00,2013-04-20 06:46:00,
2013-04-20 02:51:00,48.5,46.0,29.76,West,277,0.0,0.0,91,0.06,,RA,0.16,VWS V14.00,2013-04-20 06:51:00,
2013-04-20 02:56:00,48.5,46.0,29.76,WNW,302,0.0,2.0,91,0.04,,RA,0.16,VWS V14.00,2013-04-20 06:56:00,
2013-04-20 03:01:00,48.5,46.0,29.76,WNW,302,0.0,0.0,91,0.00,,-RA,0.16,VWS V14.00,2013-04-20 07:01:00,
2013-04-20 03:06:00,48.5,46.0,29.76,WNW,288,1.0,1.0,91,0.00,,-RA,0.17,VWS V14.00,2013-04-20 07:06:00,
2013-04-20 03:11:00,48.6,46.1,29.76,WNW,288,0.0,0.0,91,0.00,,-RA,0.17,VWS V14.00,2013-04-20 07:11:00,
2013-04-20 03:16:00,48.6,46.1,29.77,WNW,296,2.0,4.0,91,0.00,,-RA,0.17,VWS V14.00,2013-04-20 07:16:00,
2013-04-20 03:21:00,48.6,46.1,29.77,West,259,0.0,2.0,91,0.00,,-RA,0.17,VWS V14.00,2013-04-20 07:21:00,
2013-04-20 03:26:00,48.7,46.2,29.77,West,271,2.0,2.0,91,0.00,,-RA,0.17,VWS V14.00,2013-04-20 07:26:00,
2013-04-20 03:31:00,48.6,46.1,29.77,WNW,290,0.0,2.0,91,0.00,,-RA,0.17,VWS V14.00,2013-04-20 07:31:00,
2013-04-20 03:36:00,48.5,46.0,29.77,WNW,294,1.0,2.0,91,0.00,,-RA,0.17,VWS V14.00,2013-04-20 07:36:00,
2013-04-20 03:41:00,48.5,46.0,29.77,SW,216,0.0,2.0,91,0.00,,-RA,0.17,VWS V14.00,2013-04-20 07:41:00,
2013-04-20 03:46:00,48.4,45.9,29.77,NNW,343,0.0,0.0,91,0.00,,-RA,0.17,VWS V14.00,2013-04-20 07:46:00,
2013-04-20 03:51:00,48.4,45.9,29.77,WNW,283,2.0,3.0,91,0.00,,-RA,0.17,VWS V14.00,2013-04-20 07:51:00,
2013-04-20 03:56:00,48.2,45.7,29.77,WSW,241,2.0,2.0,91,0.00,,-RA,0.17,VWS V14.00,2013-04-20 07:56:00,
2013-04-20 04:01:00,48.1,45.6,29.78,WNW,284,2.0,2.0,91,0.00,,OVC055,0.17,VWS V14.00,2013-04-20 08:01:00,
2013-04-20 04:06:00,47.9,45.4,29.78,WNW,292,1.0,4.0,91,0.00,,OVC055,0.17,VWS V14.00,2013-04-20 08:06:00,
2013-04-20 04:11:00,47.7,45.2,29.78,WNW,302,3.0,9.0,91,0.00,,OVC055,0.17,VWS V14.00,2013-04-20 08:11:00,
2013-04-20 04:16:00,47.5,45.0,29.80,WSW,252,0.0,2.0,91,0.00,,OVC055,0.17,VWS V14.00,2013-04-20 08:16:00,
2013-04-20 04:21:00,47.4,44.9,29.80,West,266,4.0,5.0,91,0.00,,OVC055,0.17,VWS V14.00,2013-04-20 08:21:00,
2013-04-20 04:26:00,47.3,44.8,29.80,West,263,0.0,0.0,91,0.00,,OVC055,0.17,VWS V14.00,2013-04-20 08:26:00,
2013-04-20 04:31:00,47.3,44.8,29.81,West,271,1.0,2.0,91,0.00,,OVC055,0.17,VWS V14.00,2013-04-20 08:31:00,
2013-04-20 04:36:00,47.1,44.3,29.81,NW,313,3.0,4.0,90,0.00,,OVC055,0.17,VWS V14.00,2013-04-20 08:36:00,
2013-04-20 04:41:00,47.0,44.2,29.81,WNW,283,1.0,8.0,90,0.00,,OVC055,0.17,VWS V14.00,2013-04-20 08:41:00,
2013-04-20 04:46:00,47.0,44.2,29.82,West,277,0.0,1.0,90,0.00,,OVC055,0.17,VWS V14.00,2013-04-20 08:46:00,
2013-04-20 04:51:00,47.0,44.2,29.82,NW,316,0.0,3.0,90,0.00,,OVC055,0.17,VWS V14.00,2013-04-20 08:51:00,
2013-04-20 04:56:00,46.9,44.1,29.82,WNW,299,0.0,1.0,90,0.00,,OVC055,0.17,VWS V14.00,2013-04-20 08:56:00,
2013-04-20 05:05:00,47.0,44.2,29.83,WNW,292,0.0,3.0,90,0.00,,OVC055,0.17,VWS V14.00,2013-04-20 09:05:00,
2013-04-20 05:10:00,46.9,44.1,29.83,North,360,0.0,2.0,90,0.00,,OVC060,0.17,VWS V14.00,2013-04-20 09:10:00,
2013-04-20 05:16:00,47.0,43.9,29.84,North,360,0.0,0.0,89,0.00,,OVC060,0.17,VWS V14.00,2013-04-20 09:16:00,
2013-04-20 05:21:00,47.0,43.9,29.84,WSW,257,0.0,0.0,89,0.00,,OVC060,0.17,VWS V14.00,2013-04-20 09:21:00,
2013-04-20 05:26:00,47.0,43.9,29.84,WNW,298,0.0,4.0,89,0.00,,OVC060,0.17,VWS V14.00,2013-04-20 09:26:00,
2013-04-20 05:31:00,46.9,43.8,29.85,West,278,0.0,2.0,89,0.00,,OVC060,0.17,VWS V14.00,2013-04-20 09:31:00,
2013-04-20 05:36:00,46.9,43.8,29.85,West,277,1.0,1.0,89,0.00,,OVC060,0.17,VWS V14.00,2013-04-20 09:36:00,
2013-04-20 05:41:00,46.8,43.7,29.85,West,275,0.0,1.0,89,0.00,,OVC060,0.17,VWS V14.00,2013-04-20 09:41:00,
2013-04-20 05:46:00,46.7,43.3,29.85,WNW,289,0.0,0.0,88,0.00,,OVC060,0.17,VWS V14.00,2013-04-20 09:46:00,
2013-04-20 05:51:00,46.7,43.3,29.85,WSW,247,0.0,0.0,88,0.00,,OVC060,0.17,VWS V14.00,2013-04-20 09:51:00,
2013-04-20 05:56:00,46.7,43.3,29.85,NW,314,0.0,0.0,88,0.00,,OVC060,0.17,VWS V14.00,2013-04-20 09:56:00,
2013-04-20 06:01:00,46.7,43.0,29.86,WNW,298,0.0,1.0,87,0.00,,OVC065,0.17,VWS V14.00,2013-04-20 10:01:00,
2013-04-20 06:06:00,46.5,42.5,29.86,NW,321,5.0,7.0,86,0.00,,OVC065,0.17,VWS V14.00,2013-04-20 10:06:00,
2013-04-20 06:11:00,46.6,42.3,29.86,NNW,327,0.0,0.0,85,0.00,,OVC065,0.17,VWS V14.00,2013-04-20 10:11:00,
2013-04-20 06:16:00,46.6,41.7,29.86,WNW,303,4.0,4.0,83,0.00,,OVC065,0.17,VWS V14.00,2013-04-20 10:16:00,
2013-04-20 06:21:00,46.6,41.4,29.86,NNW,327,2.0,6.0,82,0.00,,OVC065,0.17,VWS V14.00,2013-04-20 10:21:00,
2013-04-20 06:26:00,46.7,40.9,29.86,West,281,0.0,0.0,80,0.00,,OVC065,0.17,VWS V14.00,2013-04-20 10:26:00,
2013-04-20 06:31:00,46.7,40.9,29.87,WNW,303,2.0,4.0,80,0.00,,OVC065,0.17,VWS V14.00,2013-04-20 10:31:00,
2013-04-20 06:36:00,46.7,40.2,29.87,ENE,57,2.0,6.0,78,0.00,,OVC065,0.17,VWS V14.00,2013-04-20 10:36:00,
2013-04-20 06:41:00,46.9,40.4,29.87,WNW,296,0.0,2.0,78,0.00,,OVC065,0.17,VWS V14.00,2013-04-20 10:41:00,
2013-04-20 06:46:00,46.9,40.4,29.88,West,277,2.0,2.0,78,0.00,,OVC065,0.17,VWS V14.00,2013-04-20 10:46:00,
2013-04-20 06:51:00,46.9,40.1,29.88,WNW,292,1.0,2.0,77,0.00,,OVC065,0.17,VWS V14.00,2013-04-20 10:51:00,
2013-04-20 06:56:00,46.8,40.0,29.88,WNW,282,1.0,4.0,77,0.00,,OVC065,0.17,VWS V14.00,2013-04-20 10:56:00,
2013-04-20 07:01:00,46.8,40.0,29.89,WNW,291,1.0,1.0,77,0.00,,FEW070,0.17,VWS V14.00,2013-04-20 11:01:00,
2013-04-20 07:06:00,46.8,40.3,29.89,WNW,296,2.0,2.0,78,0.00,,FEW070,0.17,VWS V14.00,2013-04-20 11:06:00,
2013-04-20 07:11:00,46.6,39.8,29.89,WNW,303,0.0,0.0,77,0.00,,FEW070,0.17,VWS V14.00,2013-04-20 11:11:00,
2013-04-20 07:16:00,46.7,39.5,29.89,NW,319,0.0,0.0,76,0.00,,FEW070,0.17,VWS V14.00,2013-04-20 11:16:00,
2013-04-20 07:21:00,46.7,39.5,29.89,North,360,0.0,0.0,76,0.00,,FEW070,0.17,VWS V14.00,2013-04-20 11:21:00,
2013-04-20 07:26:00,46.8,40.0,29.89,North,350,0.0,0.0,77,0.00,,FEW070,0.17,VWS V14.00,2013-04-20 11:26:00,
2013-04-20 07:31:00,46.9,39.7,29.90,West,281,0.0,1.0,76,0.00,,FEW070,0.17,VWS V14.00,2013-04-20 11:31:00,
2013-04-20 07:36:00,47.0,39.5,29.90,SW,234,0.0,0.0,75,0.00,,FEW070,0.17,VWS V14.00,2013-04-20 11:36:00,
2013-04-20 07:41:00,47.2,40.0,29.90,WNW,282,0.0,0.0,76,0.00,,FEW070,0.17,VWS V14.00,2013-04-20 11:41:00,
2013-04-20 07:46:00,47.4,40.2,29.91,WNW,283,0.0,0.0,76,0.00,,FEW070,0.17,VWS V14.00,2013-04-20 11:46:00,
2013-04-20 07:51:00,47.8,39.6,29.91,WNW,284,2.0,5.0,73,0.00,,FEW070,0.17,VWS V14.00,2013-04-20 11:51:00,
2013-04-20 07:56:00,48.2,40.0,29.91,West,271,0.0,0.0,73,0.00,,FEW070,0.17,VWS V14.00,2013-04-20 11:56:00,
2013-04-20 08:01:00,48.6,40.3,29.90,West,275,4.0,5.0,73,0.00,,FEW070,0.17,VWS V14.00,2013-04-20 12:01:00,
2013-04-20 08:06:00,48.8,39.8,29.90,NW,323,1.0,2.0,71,0.00,,FEW070,0.17,VWS V14.00,2013-04-20 12:06:00,
2013-04-20 08:11:00,48.9,39.6,29.90,SW,236,2.0,4.0,70,0.00,,FEW070,0.17,VWS V14.00,2013-04-20 12:11:00,
2013-04-20 08:16:00,48.9,39.2,29.91,NNE,24,2.0,3.0,69,0.00,,FEW070,0.17,VWS V14.00,2013-04-20 12:16:00,
2013-04-20 08:21:00,48.9,38.8,29.91,West,261,0.0,3.0,68,0.00,,FEW070,0.17,VWS V14.00,2013-04-20 12:21:00,
2013-04-20 08:26:00,49.0,39.3,29.91,NW,324,4.0,6.0,69,0.00,,FEW070,0.17,VWS V14.00,2013-04-20 12:26:00,
2013-04-20 08:31:00,49.1,39.0,29.92,WSW,253,2.0,5.0,68,0.00,,FEW070,0.17,VWS V14.00,2013-04-20 12:31:00,
2013-04-20 08:36:00,49.2,38.7,29.92,WSW,250,4.0,7.0,67,0.00,,FEW070,0.17,VWS V14.00,2013-04-20 12:36:00,
2013-04-20 08:41:00,49.2,38.3,29.92,WNW,285,3.0,7.0,66,0.00,,FEW070,0.17,VWS V14.00,2013-04-20 12:41:00,
2013-04-20 08:46:00,49.3,38.8,29.92,NW,315,3.0,6.0,67,0.00,,FEW070,0.17,VWS V14.00,2013-04-20 12:46:00,
2013-04-20 08:51:00,49.3,38.8,29.92,NNW,332,5.0,7.0,67,0.00,,FEW070,0.17,VWS V14.00,2013-04-20 12:51:00,
2013-04-20 08:56:00,49.3,38.4,29.92,WNW,282,3.0,3.0,66,0.00,,FEW070,0.17,VWS V14.00,2013-04-20 12:56:00,
2013-04-20 09:01:00,49.3,38.8,29.93,NW,316,3.0,3.0,67,0.00,,CLR,0.17,VWS V14.00,2013-04-20 13:01:00,
2013-04-20 09:06:00,49.4,38.1,29.93,West,273,3.0,4.0,65,0.00,,CLR,0.17,VWS V14.00,2013-04-20 13:06:00,
2013-04-20 09:11:00,49.3,38.0,29.93,NW,316,7.0,9.0,65,0.00,,CLR,0.17,VWS V14.00,2013-04-20 13:11:00,
2013-04-20 09:16:00,49.2,37.2,29.94,WNW,290,2.0,5.0,63,0.00,,CLR,0.17,VWS V14.00,2013-04-20 13:16:00,
2013-04-20 09:21:00,49.2,37.2,29.94,NW,307,3.0,6.0,63,0.00,,CLR,0.17,VWS V14.00,2013-04-20 13:21:00,
2013-04-20 09:26:00,49.1,36.2,29.94,NW,313,9.0,10.0,61,0.00,,CLR,0.17,VWS V14.00,2013-04-20 13:26:00,
2013-04-20 09:31:00,49.1,36.7,29.95,SW,230,11.0,11.0,62,0.00,,CLR,0.17,VWS V14.00,2013-04-20 13:31:00,
2013-04-20 09:36:00,49.2,37.2,29.95,NE,37,4.0,5.0,63,0.00,,CLR,0.17,VWS V14.00,2013-04-20 13:36:00,
2013-04-20 09:41:00,49.3,37.2,29.95,NW,309,4.0,6.0,63,0.00,,CLR,0.17,VWS V14.00,2013-04-20 13:41:00,
2013-04-20 09:46:00,49.4,37.3,29.96,NW,310,4.0,9.0,63,0.00,,CLR,0.17,VWS V14.00,2013-04-20 13:46:00,
2013-04-20 09:51:00,49.4,36.9,29.96,West,281,3.0,3.0,62,0.00,,CLR,0.17,VWS V14.00,2013-04-20 13:51:00,
2013-04-20 09:56:00,49.4,36.9,29.96,WNW,300,2.0,4.0,62,0.00,,CLR,0.17,VWS V14.00,2013-04-20 13:56:00,
2013-04-20 10:01:00,49.3,36.0,29.97,WSW,246,4.0,5.0,60,0.00,,CLR,0.17,VWS V14.00,2013-04-20 14:01:00,
2013-04-20 10:06:00,49.1,34.1,29.97,WNW,303,5.0,11.0,56,0.00,,CLR,0.17,VWS V14.00,2013-04-20 14:06:00,
2013-04-20 10:11:00,48.9,33.9,29.97,West,268,9.0,9.0,56,0.00,,CLR,0.17,VWS V14.00,2013-04-20 14:11:00,
2013-04-20 10:16:00,48.8,34.7,29.99,West,276,2.0,4.0,58,0.00,,CLR,0.17,VWS V14.00,2013-04-20 14:16:00,
2013-04-20 10:21:00,48.9,33.9,29.99,West,275,11.0,12.0,56,0.00,,CLR,0.17,VWS V14.00,2013-04-20 14:21:00,
2013-04-20 10:26:00,48.9,34.3,29.99,WNW,286,0.0,5.0,57,0.00,,CLR,0.17,VWS V14.00,2013-04-20 14:26:00,
2013-04-20 10:31:00,49.1,35.4,29.99,WSW,250,1.0,5.0,59,0.00,,CLR,0.17,VWS V14.00,2013-04-20 14:31:00,
2013-04-20 10:36:00,49.4,36.1,29.99,NNW,330,2.0,6.0,60,0.00,,CLR,0.17,VWS V14.00,2013-04-20 14:36:00,
2013-04-20 10:41:00,49.7,36.4,29.99,North,355,2.0,3.0,60,0.00,,CLR,0.17,VWS V14.00,2013-04-20 14:41:00,
2013-04-20 10:46:00,49.7,36.0,30.00,WNW,286,3.0,5.0,59,0.00,,CLR,0.17,VWS V14.00,2013-04-20 14:46:00,
2013-04-20 10:51:00,49.8,36.1,30.00,WSW,249,3.0,6.0,59,0.00,,CLR,0.17,VWS V14.00,2013-04-20 14:51:00,
2013-04-20 10:56:00,50.1,37.6,30.00,WNW,287,3.0,3.0,62,0.00,,CLR,0.17,VWS V14.00,2013-04-20 14:56:00,
2013-04-20 11:06:00,51.5,37.7,30.01,West,271,3.0,3.0,59,0.00,,CLR,0.17,VWS V14.00,2013-04-20 15:06:00,
2013-04-20 11:11:00,52.2,38.8,30.01,WSW,239,3.0,10.0,60,0.00,,CLR,0.17,VWS V14.00,2013-04-20 15:11:00,
2013-04-20 11:16:00,52.8,38.0,30.02,SW,215,3.0,3.0,57,0.00,,CLR,0.17,VWS V14.00,2013-04-20 15:16:00,
2013-04-20 11:21:00,52.6,36.9,30.02,NW,325,4.0,4.0,55,0.00,,CLR,0.17,VWS V14.00,2013-04-20 15:21:00,
2013-04-20 11:26:00,52.3,35.7,30.02,West,269,2.0,7.0,53,0.00,,CLR,0.17,VWS V14.00,2013-04-20 15:26:00,
2013-04-20 11:31:00,52.4,36.7,30.01,NNW,340,3.0,10.0,55,0.00,,CLR,0.17,VWS V14.00,2013-04-20 15:31:00,
2013-04-20 11:36:00,52.4,36.3,30.01,WNW,299,5.0,12.0,54,0.00,,CLR,0.17,VWS V14.00,2013-04-20 15:36:00,
2013-04-20 11:41:00,52.5,36.3,30.01,NW,313,9.0,9.0,54,0.00,,CLR,0.17,VWS V14.00,2013-04-20 15:41:00,
2013-04-20 11:46:00,52.2,36.1,30.01,West,261,5.0,10.0,54,0.00,,CLR,0.17,VWS V14.00,2013-04-20 15:46:00,
2013-04-20 11:51:00,52.1,35.5,30.01,NW,316,4.0,4.0,53,0.00,,CLR,0.17,VWS V14.00,2013-04-20 15:51:00,
2013-04-20 11:56:00,52.3,37.5,30.01,West,267,6.0,9.0,57,0.00,,CLR,0.17,VWS V14.00,2013-04-20 15:56:00,
2013-04-20 12:01:00,53.2,37.9,30.01,West,280,6.0,11.0,56,0.00,,BKN060,0.17,VWS V14.00,2013-04-20 16:01:00,
2013-04-20 12:06:00,54.5,39.1,30.01,WNW,288,2.0,5.0,56,0.00,,BKN060,0.17,VWS V14.00,2013-04-20 16:06:00,
2013-04-20 12:11:00,55.0,38.7,30.01,West,272,1.0,4.0,54,0.00,,BKN060,0.17,VWS V14.00,2013-04-20 16:11:00,
2013-04-20 12:16:00,54.8,37.5,30.00,NNW,338,3.0,4.0,52,0.00,,BKN060,0.17,VWS V14.00,2013-04-20 16:16:00,
2013-04-20 12:21:00,54.6,36.8,30.00,West,263,2.0,9.0,51,0.00,,BKN060,0.17,VWS V14.00,2013-04-20 16:21:00,
2013-04-20 12:26:00,54.2,37.5,30.00,NW,310,14.0,14.0,53,0.00,,BKN060,0.17,VWS V14.00,2013-04-20 16:26:00,
2013-04-20 12:31:00,54.2,37.5,30.01,West,261,5.0,5.0,53,0.00,,BKN060,0.17,VWS V14.00,2013-04-20 16:31:00,
2013-04-20 12:36:00,55.1,37.3,30.01,West,265,7.0,7.0,51,0.00,,BKN060,0.17,VWS V14.00,2013-04-20 16:36:00,
2013-04-20 12:41:00,55.8,38.0,30.01,SE,146,0.0,6.0,51,0.00,,BKN060,0.17,VWS V14.00,2013-04-20 16:41:00,
2013-04-20 12:46:00,56.3,35.8,30.00,West,259,3.0,7.0,46,0.00,,BKN060,0.17,VWS V14.00,2013-04-20 16:46:00,
2013-04-20 12:51:00,56.8,38.9,30.00,West,281,4.0,4.0,51,0.00,,BKN060,0.17,VWS V14.00,2013-04-20 16:51:00,
2013-04-20 12:56:00,57.4,38.4,30.00,WNW,296,4.0,10.0,49,0.00,,BKN060,0.17,VWS V14.00,2013-04-20 16:56:00,
2013-04-20 13:01:00,57.5,37.5,30.00,SW,225,4.0,6.0,47,0.00,,CLR,0.17,VWS V14.00,2013-04-20 17:01:00,
2013-04-20 13:06:00,57.3,38.3,30.00,NNW,338,4.0,7.0,49,0.00,,CLR,0.17,VWS V14.00,2013-04-20 17:06:00,
2013-04-20 13:11:00,56.8,36.3,30.00,NNW,342,4.0,4.0,46,0.00,,CLR,0.17,VWS V14.00,2013-04-20 17:11:00,
2013-04-20 13:16:00,56.9,36.3,30.00,WNW,294,5.0,12.0,46,0.00,,CLR,0.17,VWS V14.00,2013-04-20 17:16:00,
2013-04-20 13:21:00,56.9,36.3,30.00,WNW,294,14.0,14.0,46,0.00,,CLR,0.17,VWS V14.00,2013-04-20 17:21:00,
2013-04-20 13:26:00,57.1,37.1,30.00,West,275,3.0,8.0,47,0.00,,CLR,0.17,VWS V14.00,2013-04-20 17:26:00,
2013-04-20 13:31:00,57.3,35.6,30.00,WSW,245,7.0,9.0,44,0.00,,CLR,0.17,VWS V14.00,2013-04-20 17:31:00,
2013-04-20 13:36:00,57.3,35.0,30.00,SW,215,3.0,13.0,43,0.00,,CLR,0.17,VWS V14.00,2013-04-20 17:36:00,
2013-04-20 13:41:00,57.5,37.5,30.00,WSW,241,6.0,10.0,47,0.00,,CLR,0.17,VWS V14.00,2013-04-20 17:41:00,
2013-04-20 13:46:00,57.7,37.6,30.00,NNW,333,2.0,4.0,47,0.00,,CLR,0.17,VWS V14.00,2013-04-20 17:46:00,
2013-04-20 13:51:00,57.8,37.7,30.00,NNW,327,2.0,4.0,47,0.00,,CLR,0.17,VWS V14.00,2013-04-20 17:51:00,
2013-04-20 13:56:00,58.2,37.5,30.00,West,278,3.0,3.0,46,0.00,,CLR,0.17,VWS V14.00,2013-04-20 17:56:00,
2013-04-20 14:01:00,58.2,35.8,30.00,WNW,290,5.0,7.0,43,0.00,,SCT060,0.17,VWS V14.00,2013-04-20 18:01:00,
2013-04-20 14:06:00,57.8,37.2,30.00,NNE,24,3.0,6.0,46,0.00,,SCT060,0.17,VWS V14.00,2013-04-20 18:06:00,
2013-04-20 14:11:00,57.6,37.0,30.00,WNW,287,7.0,8.0,46,0.00,,SCT060,0.17,VWS V14.00,2013-04-20 18:11:00,
2013-04-20 14:16:00,57.1,36.0,30.00,WNW,299,10.0,10.0,45,0.00,,SCT060,0.17,VWS V14.00,2013-04-20 18:16:00,
2013-04-20 14:21:00,56.7,35.6,30.00,NW,313,6.0,11.0,45,0.00,,SCT060,0.17,VWS V14.00,2013-04-20 18:21:00,
2013-04-20 14:26:00,56.8,38.4,30.00,WSW,242,5.0,5.0,50,0.00,,SCT060,0.17,VWS V14.00,2013-04-20 18:26:00,
2013-04-20 14:31:00,57.2,37.2,30.00,SSW,194,5.0,5.0,47,0.00,,SCT060,0.17,VWS V14.00,2013-04-20 18:31:00,
2013-04-20 14:36:00,58.1,39.1,30.00,SW,226,3.0,13.0,49,0.00,,SCT060,0.17,VWS V14.00,2013-04-20 18:36:00,
2013-04-20 14:41:00,58.9,37.0,30.00,WNW,294,9.0,14.0,44,0.00,,SCT060,0.17,VWS V14.00,2013-04-20 18:41:00,
2013-04-20 14:46:00,59.0,36.6,30.00,West,265,4.0,7.0,43,0.00,,SCT060,0.17,VWS V14.00,2013-04-20 18:46:00,
2013-04-20 14:51:00,58.9,35.3,30.00,NW,311,6.0,7.0,41,0.00,,SCT060,0.17,VWS V14.00,2013-04-20 18:51:00,
2013-04-20 14:56:00,58.4,35.4,30.00,WNW,299,0.0,6.0,42,0.00,,SCT060,0.17,VWS V14.00,2013-04-20 18:56:00,
2013-04-20 15:05:00,58.3,34.7,30.00,WNW,292,5.0,18.0,41,0.00,,BKN060,0.17,VWS V14.00,2013-04-20 19:05:00,
2013-04-20 15:10:00,58.1,34.5,30.00,WNW,283,6.0,7.0,41,0.00,,BKN060,0.17,VWS V14.00,2013-04-20 19:10:00,
2013-04-20 15:15:00,57.9,32.5,30.01,WNW,290,5.0,5.0,38,0.00,,BKN060,0.17,VWS V14.00,2013-04-20 19:15:00,
2013-04-20 15:20:00,58.0,35.7,30.01,South,169,4.0,4.0,43,0.00,,BKN060,0.17,VWS V14.00,2013-04-20 19:20:00,
2013-04-20 15:25:00,58.2,35.2,30.01,West,265,3.0,3.0,42,0.00,,BKN060,0.17,VWS V14.00,2013-04-20 19:25:00,
2013-04-20 15:30:00,58.1,34.5,30.01,NNW,337,3.0,3.0,41,0.00,,BKN060,0.17,VWS V14.00,2013-04-20 19:30:00,
2013-04-20 15:35:00,58.2,34.6,30.01,West,264,2.0,2.0,41,0.00,,BKN060,0.17,VWS V14.00,2013-04-20 19:35:00,
2013-04-20 15:40:00,58.2,35.2,30.01,NW,309,1.0,1.0,42,0.00,,BKN060,0.17,VWS V14.00,2013-04-20 19:40:00,
2013-04-20 15:45:00,58.6,35.0,30.02,West,281,2.0,3.0,41,0.00,,BKN060,0.17,VWS V14.00,2013-04-20 19:45:00,
2013-04-20 15:50:00,58.5,34.3,30.02,WSW,246,2.0,5.0,40,0.00,,BKN060,0.17,VWS V14.00,2013-04-20 19:50:00,
2013-04-20 15:55:00,58.5,35.5,30.02,WSW,243,4.0,5.0,42,0.00,,BKN060,0.17,VWS V14.00,2013-04-20 19:55:00,
2013-04-20 16:00:00,58.4,33.6,30.02,West,279,10.0,14.0,39,0.00,,BKN070,0.17,VWS V14.00,2013-04-20 20:00:00,
2013-04-20 16:05:00,58.4,34.8,30.02,West,264,4.0,4.0,41,0.00,,BKN070,0.17,VWS V14.00,2013-04-20 20:05:00,
2013-04-20 16:10:00,58.2,33.4,30.02,North,355,4.0,5.0,39,0.00,,BKN070,0.17,VWS V14.00,2013-04-20 20:10:00,
2013-04-20 16:15:00,58.4,34.8,30.03,North,11,2.0,2.0,41,0.00,,BKN070,0.17,VWS V14.00,2013-04-20 20:15:00,
2013-04-20 16:20:00,58.8,33.9,30.03,West,271,2.0,2.0,39,0.00,,BKN070,0.17,VWS V14.00,2013-04-20 20:20:00,
2013-04-20 16:25:00,58.6,35.0,30.03,West,269,3.0,4.0,41,0.00,,BKN070,0.17,VWS V14.00,2013-04-20 20:25:00,
2013-04-20 16:30:00,58.6,34.4,30.03,NNW,337,2.0,4.0,40,0.00,,BKN070,0.17,VWS V14.00,2013-04-20 20:30:00,
2013-04-20 16:35:00,59.0,34.1,30.03,West,262,1.0,2.0,39,0.00,,BKN070,0.17,VWS V14.00,2013-04-20 20:35:00,
2013-04-20 16:40:00,58.5,34.3,30.03,NNW,331,4.0,4.0,40,0.00,,BKN070,0.17,VWS V14.00,2013-04-20 20:40:00,
2013-04-20 16:45:00,58.2,33.4,30.04,WNW,302,4.0,4.0,39,0.00,,BKN070,0.17,VWS V14.00,2013-04-20 20:45:00,
2013-04-20 16:50:00,58.0,33.2,30.04,WNW,298,3.0,4.0,39,0.00,,BKN070,0.17,VWS V14.00,2013-04-20 20:50:00,
2013-04-20 16:55:00,57.6,34.1,30.04,West,269,0.0,1.0,41,0.00,,BKN070,0.17,VWS V14.00,2013-04-20 20:55:00,
2013-04-20 17:00:00,57.8,33.7,30.05,North,355,3.0,3.0,40,0.00,,FEW070,0.17,VWS V14.00,2013-04-20 21:00:00,
2013-04-20 17:05:00,57.2,33.1,30.05,WNW,302,10.0,13.0,40,0.00,,FEW070,0.17,VWS V14.00,2013-04-20 21:05:00,
2013-04-20 17:10:00,57.0,33.5,30.05,WNW,291,4.0,4.0,41,0.00,,FEW070,0.17,VWS V14.00,2013-04-20 21:10:00,
2013-04-20 17:15:00,56.8,32.8,30.06,NW,304,0.0,1.0,40,0.00,,FEW070,0.17,VWS V14.00,2013-04-20 21:15:00,
2013-04-20 17:20:00,57.2,33.1,30.06,WNW,296,0.0,2.0,40,0.00,,FEW070,0.17,VWS V14.00,2013-04-20 21:20:00,
2013-04-20 17:25:00,57.4,33.3,30.06,NNW,342,1.0,4.0,40,0.00,,FEW070,0.17,VWS V14.00,2013-04-20 21:25:00,
2013-04-20 17:31:00,57.6,32.2,30.07,WNW,295,6.0,9.0,38,0.00,,FEW070,0.17,VWS V14.00,2013-04-20 21:31:00,
2013-04-20 17:36:00,57.2,32.5,30.07,WNW,298,2.0,4.0,39,0.00,,FEW070,0.17,VWS V14.00,2013-04-20 21:36:00,
2013-04-20 17:41:00,56.9,32.2,30.07,WNW,302,8.0,11.0,39,0.00,,FEW070,0.17,VWS V14.00,2013-04-20 21:41:00,
2013-04-20 17:46:00,56.4,32.4,30.08,North,355,4.0,5.0,40,0.00,,FEW070,0.17,VWS V14.00,2013-04-20 21:46:00,
2013-04-20 17:51:00,55.9,32.6,30.08,WNW,302,2.0,3.0,41,0.00,,FEW070,0.17,VWS V14.00,2013-04-20 21:51:00,
2013-04-20 17:56:00,55.5,31.6,30.08,WNW,292,7.0,7.0,40,0.00,,FEW070,0.17,VWS V14.00,2013-04-20 21:56:00,
2013-04-20 18:01:00,55.3,31.4,30.09,West,269,8.0,13.0,40,0.00,,FEW070,0.17,VWS V14.00,2013-04-20 22:01:00,
2013-04-20 18:06:00,55.1,30.6,30.09,WNW,300,5.0,6.0,39,0.00,,FEW070,0.17,VWS V14.00,2013-04-20 22:06:00,
2013-04-20 18:11:00,54.9,31.0,30.09,SW,234,6.0,12.0,40,0.00,,FEW070,0.17,VWS V14.00,2013-04-20 22:11:00,
2013-04-20 18:16:00,54.8,31.0,30.10,WNW,288,11.0,11.0,40,0.00,,FEW070,0.17,VWS V14.00,2013-04-20 22:16:00,
2013-04-20 18:21:00,54.7,31.5,30.10,WSW,254,4.0,12.0,41,0.00,,FEW070,0.17,VWS V14.00,2013-04-20 22:21:00,
2013-04-20 18:26:00,54.5,30.7,30.10,West,273,2.0,4.0,40,0.00,,FEW070,0.17,VWS V14.00,2013-04-20 22:26:00,
2013-04-20 18:31:00,54.3,30.5,30.10,WNW,292,5.0,9.0,40,0.00,,FEW070,0.17,VWS V14.00,2013-04-20 22:31:00,
2013-04-20 18:36:00,53.9,30.1,30.10,NW,314,4.0,11.0,40,0.00,,FEW070,0.17,VWS V14.00,2013-04-20 22:36:00,
2013-04-20 18:41:00,53.5,29.8,30.10,WNW,291,2.0,7.0,40,0.00,,FEW070,0.17,VWS V14.00,2013-04-20 22:41:00,
2013-04-20 18:46:00,53.3,30.2,30.11,West,280,5.0,6.0,41,0.00,,FEW070,0.17,VWS V14.00,2013-04-20 22:46:00,
2013-04-20 18:51:00,53.1,30.0,30.11,NW,313,1.0,7.0,41,0.00,,FEW070,0.17,VWS V14.00,2013-04-20 22:51:00,
2013-04-20 18:56:00,52.9,29.9,30.11,NW,317,5.0,12.0,41,0.00,,FEW070,0.17,VWS V14.00,2013-04-20 22:56:00,
2013-04-20 19:01:00,52.8,29.8,30.12,NW,314,7.0,7.0,41,0.00,,FEW070,0.17,VWS V14.00,2013-04-20 23:01:00,
2013-04-20 19:06:00,52.7,29.7,30.12,WNW,285,2.0,4.0,41,0.00,,FEW070,0.17,VWS V14.00,2013-04-20 23:06:00,
2013-04-20 19:11:00,52.6,30.2,30.12,West,268,2.0,3.0,42,0.00,,FEW070,0.17,VWS V14.00,2013-04-20 23:11:00,
2013-04-20 19:16:00,52.3,30.5,30.13,West,265,1.0,7.0,43,0.00,,FEW070,0.17,VWS V14.00,2013-04-20 23:16:00,
2013-04-20 19:21:00,52.1,30.3,30.13,WNW,288,6.0,9.0,43,0.00,,FEW070,0.17,VWS V14.00,2013-04-20 23:21:00,
2013-04-20 19:26:00,51.9,29.5,30.13,WNW,292,0.0,0.0,42,0.00,,FEW070,0.17,VWS V14.00,2013-04-20 23:26:00,
2013-04-20 19:31:00,51.7,29.9,30.14,WNW,294,2.0,11.0,43,0.00,,FEW070,0.17,VWS V14.00,2013-04-20 23:31:00,
2013-04-20 19:36:00,51.5,30.3,30.14,WSW,242,8.0,10.0,44,0.00,,FEW070,0.17,VWS V14.00,2013-04-20 23:36:00,
2013-04-20 19:41:00,51.3,29.0,30.14,WNW,289,3.0,9.0,42,0.00,,FEW070,0.17,VWS V14.00,2013-04-20 23:41:00,
2013-04-20 19:46:00,51.2,28.3,30.16,North,355,2.0,9.0,41,0.00,,FEW070,0.17,VWS V14.00,2013-04-20 23:46:00,
2013-04-20 19:51:00,50.9,29.2,30.16,North,5,2.0,2.0,43,0.00,,FEW070,0.17,VWS V14.00,2013-04-20 23:51:00,
2013-04-20 19:56:00,50.6,28.4,30.16,North,360,3.0,7.0,42,0.00,,FEW070,0.17,VWS V14.00,2013-04-20 23:56:00,
2013-04-20 20:06:00,50.5,28.3,30.17,North,0,1.0,7.0,42,0.00,,CLR,0.17,VWS V14.00,2013-04-21 00:06:00,
2013-04-20 20:11:00,50.1,28.5,30.17,SW,232,1.0,6.0,43,0.00,,CLR,0.17,VWS V14.00,2013-04-21 00:11:00,
2013-04-20 20:16:00,49.9,28.3,30.18,North,350,2.0,4.0,43,0.00,,CLR,0.17,VWS V14.00,2013-04-21 00:16:00,
2013-04-20 20:21:00,49.9,29.4,30.18,NW,316,0.0,3.0,45,0.00,,CLR,0.17,VWS V14.00,2013-04-21 00:21:00,
2013-04-20 20:26:00,49.7,28.1,30.18,WNW,289,0.0,0.0,43,0.00,,CLR,0.17,VWS V14.00,2013-04-21 00:26:00,
2013-04-20 20:31:00,49.7,28.7,30.20,WNW,286,1.0,2.0,44,0.00,,CLR,0.17,VWS V14.00,2013-04-21 00:31:00,
2013-04-20 20:36:00,49.5,28.5,30.20,WSW,238,0.0,0.0,44,0.00,,CLR,0.17,VWS V14.00,2013-04-21 00:36:00,
2013-04-20 20:41:00,49.3,28.3,30.20,West,276,1.0,4.0,44,0.00,,CLR,0.17,VWS V14.00,2013-04-21 00:41:00,
2013-04-20 20:46:00,49.2,28.8,30.21,WNW,301,2.0,3.0,45,0.00,,CLR,0.17,VWS V14.00,2013-04-21 00:46:00,
2013-04-20 20:51:00,49.0,28.6,30.21,West,265,0.0,4.0,45,0.00,,CLR,0.17,VWS V14.00,2013-04-21 00:51:00,
2013-04-20 20:56:00,48.9,29.0,30.21,WNW,296,0.0,0.0,46,0.00,,CLR,0.17,VWS V14.00,2013-04-21 00:56:00,
2013-04-20 21:01:00,48.7,29.4,30.22,West,267,0.0,0.0,47,0.00,,CLR,0.17,VWS V14.00,2013-04-21 01:01:00,
2013-04-20 21:06:00,48.4,29.1,30.22,SSW,205,2.0,4.0,47,0.00,,CLR,0.17,VWS V14.00,2013-04-21 01:06:00,
2013-04-20 21:11:00,48.2,29.5,30.22,West,268,3.0,6.0,48,0.00,,CLR,0.17,VWS V14.00,2013-04-21 01:11:00,
2013-04-20 21:16:00,48.2,28.9,30.24,WNW,286,4.0,4.0,47,0.00,,CLR,0.17,VWS V14.00,2013-04-21 01:16:00,
2013-04-20 21:21:00,48.1,28.8,30.24,NW,307,1.0,1.0,47,0.00,,CLR,0.17,VWS V14.00,2013-04-21 01:21:00,
2013-04-20 21:26:00,48.1,28.8,30.24,West,268,3.0,4.0,47,0.00,,CLR,0.17,VWS V14.00,2013-04-21 01:26:00,
2013-04-20 21:31:00,48.1,28.3,30.25,WNW,286,1.0,2.0,46,0.00,,CLR,0.17,VWS V14.00,2013-04-21 01:31:00,
2013-04-20 21:36:00,48.1,28.3,30.25,WNW,303,2.0,5.0,46,0.00,,CLR,0.17,VWS V14.00,2013-04-21 01:36:00,
2013-04-20 21:41:00,48.0,28.2,30.25,NNW,340,4.0,5.0,46,0.00,,CLR,0.17,VWS V14.00,2013-04-21 01:41:00,
2013-04-20 21:46:00,48.0,28.2,30.26,NW,324,2.0,2.0,46,0.00,,CLR,0.17,VWS V14.00,2013-04-21 01:46:00,
2013-04-20 21:51:00,47.9,28.1,30.26,NW,306,0.0,0.0,46,0.00,,CLR,0.17,VWS V14.00,2013-04-21 01:51:00,
2013-04-20 21:56:00,47.8,28.0,30.26,NW,318,0.0,1.0,46,0.00,,CLR,0.17,VWS V14.00,2013-04-21 01:56:00,
2013-04-20 22:01:00,47.5,28.3,30.26,West,272,3.0,3.0,47,0.00,,CLR,0.17,VWS V14.00,2013-04-21 02:01:00,
2013-04-20 22:06:00,47.3,28.6,30.26,West,259,0.0,1.0,48,0.00,,CLR,0.17,VWS V14.00,2013-04-21 02:06:00,
2013-04-20 22:11:00,47.0,28.3,30.26,WNW,298,0.0,3.0,48,0.00,,CLR,0.17,VWS V14.00,2013-04-21 02:11:00,
2013-04-20 22:16:00,46.8,28.7,30.26,WNW,303,0.0,3.0,49,0.00,,CLR,0.17,VWS V14.00,2013-04-21 02:16:00,
2013-04-20 22:21:00,46.6,28.0,30.26,NW,316,1.0,2.0,48,0.00,,CLR,0.17,VWS V14.00,2013-04-21 02:21:00,
2013-04-20 22:26:00,46.5,27.9,30.26,WNW,298,2.0,3.0,48,0.00,,CLR,0.17,VWS V14.00,2013-04-21 02:26:00,
2013-04-20 22:31:00,46.4,28.3,30.27,WNW,302,2.0,4.0,49,0.00,,CLR,0.17,VWS V14.00,2013-04-21 02:31:00,
2013-04-20 22:36:00,46.4,27.8,30.27,West,279,3.0,3.0,48,0.00,,CLR,0.17,VWS V14.00,2013-04-21 02:36:00,
2013-04-20 22:41:00,46.3,28.7,30.27,WNW,290,0.0,0.0,50,0.00,,CLR,0.17,VWS V14.00,2013-04-21 02:41:00,
2013-04-20 22:46:00,46.0,28.4,30.28,WNW,300,0.0,1.0,50,0.00,,CLR,0.17,VWS V14.00,2013-04-21 02:46:00,
2013-04-20 22:51:00,45.8,28.2,30.28,SW,234,2.0,2.0,50,0.00,,CLR,0.17,VWS V14.00,2013-04-21 02:51:00,
2013-04-20 22:56:00,45.8,28.2,30.28,NE,34,0.0,0.0,50,0.00,,CLR,0.17,VWS V14.00,2013-04-21 02:56:00,
2013-04-20 23:01:00,45.6,28.5,30.29,WSW,256,1.0,4.0,51,0.00,,CLR,0.17,VWS V14.00,2013-04-21 03:01:00,
2013-04-20 23:06:00,45.4,28.4,30.29,North,355,0.0,1.0,51,0.00,,CLR,0.17,VWS V14.00,2013-04-21 03:06:00,
2013-04-20 23:11:00,45.2,28.6,30.29,North,355,0.0,0.0,52,0.00,,CLR,0.17,VWS V14.00,2013-04-21 03:11:00,
2013-04-20 23:16:00,45.0,28.5,30.29,North,355,0.0,0.0,52,0.00,,CLR,0.17,VWS V14.00,2013-04-21 03:16:00,
2013-04-20 23:21:00,44.9,28.4,30.29,WNW,303,1.0,1.0,52,0.00,,CLR,0.17,VWS V14.00,2013-04-21 03:21:00,
2013-04-20 23:26:00,44.6,28.5,30.29,NNW,331,1.0,2.0,53,0.00,,CLR,0.17,VWS V14.00,2013-04-21 03:26:00,
2013-04-20 23:31:00,44.4,28.8,30.30,West,281,1.0,2.0,54,0.00,,CLR,0.17,VWS V14.00,2013-04-21 03:31:00,
2013-04-20 23:36:00,44.3,28.3,30.30,NNW,348,1.0,3.0,53,0.00,,CLR,0.17,VWS V14.00,2013-04-21 03:36:00,
2013-04-20 23:41:00,44.3,28.3,30.30,NNW,346,3.0,5.0,53,0.00,,CLR,0.17,VWS V14.00,2013-04-21 03:41:00,
2013-04-20 23:46:00,44.2,28.2,30.30,NW,326,0.0,3.0,53,0.00,,CLR,0.17,VWS V14.00,2013-04-21 03:46:00,
2013-04-20 23:51:00,44.3,27.8,30.30,NNW,333,2.0,3.0,52,0.00,,CLR,0.17,VWS V14.00,2013-04-21 03:51:00,
2013-04-20 23:56:00,44.3,28.3,30.30,NNW,331,0.0,3.0,53,0.00,,CLR,0.17,VWS V14.00,2013-04-21 03:56:00,